Bookmark and Share
Track history (hours):
 

African Highway

Last reported at 2014-Apr-16 04:33 UTC. Time now 2014-Apr-16 05:28 UTC.
Position N 53°20' E 007°11'.

Length 154.5 m; beam 27.6 m.

Type: Cargo ship. MMSI: 353633000.

NotesDate/timePositionNaut miles runAvg speedWind from/ knotsBaromVisibWave heightAir tempDewpointWater temp
2014-Apr-16 04:33N 53°20' E 007°11'0 0.0
2014-Apr-16 03:33N 53°20' E 007°11'0 0.0
2014-Apr-16 02:30N 53°20' E 007°11'0 0.0
2014-Apr-16 01:33N 53°20' E 007°11'0 0.0
2014-Apr-16 00:33N 53°20' E 007°11'0 0.0
2014-Apr-15 23:33N 53°20' E 007°11'0 0.0
2014-Apr-15 22:33N 53°20' E 007°11'0 0.0
2014-Apr-15 21:33N 53°20' E 007°11'0 0.0
2014-Apr-15 20:33N 53°20' E 007°11'0 0.0
2014-Apr-15 19:33N 53°20' E 007°11'0 0.0
2014-Apr-15 18:30N 53°20' E 007°11'0 0.0
2014-Apr-15 17:33N 53°20' E 007°11'0 0.0
2014-Apr-15 16:33N 53°20' E 007°11'0 0.0
2014-Apr-15 15:30N 53°20' E 007°11'0 0.0
2014-Apr-15 14:33N 53°20' E 007°11'0 0.0
2014-Apr-15 12:34N 53°20' E 007°11'0 0.0
2014-Apr-15 11:33N 53°20' E 007°11'0 0.0
2014-Apr-15 10:33N 53°20' E 007°11'0 0.0
2014-Apr-15 09:33N 53°20' E 007°11'0 0.0
2014-Apr-15 08:33N 53°20' E 007°11'3 3.4
2014-Apr-15 07:34N 53°20' E 007°05'1312.9
2014-Apr-15 06:34N 53°29' E 006°50'1515.3
2014-Apr-15 05:34N 53°37' E 006°28'2411.9
2014-Apr-15 03:34N 53°37' E 005°48'1413.8
2014-Apr-15 02:34N 53°32' E 005°26'1313.5
2014-Apr-15 01:34N 53°29' E 005°04'1312.7
2014-Apr-15 00:34N 53°24' E 004°45'1111.2
2014-Apr-14 23:33N 53°14' E 004°35'1111.3
2014-Apr-14 22:34N 53°04' E 004°27'1111.3
2014-Apr-14 21:34N 52°54' E 004°16'1211.8
2014-Apr-14 20:34N 52°45' E 004°05'1211.8
2014-Apr-14 19:33N 52°36' E 003°53'1212.0
2014-Apr-14 18:33N 52°27' E 003°38'6613.2
2014-Apr-14 13:33N 51°46' E 002°14'3216.0
2014-Apr-14 11:34N 51°30' E 001°31'1313.3
2014-Apr-14 10:34N 51°29' E 001°09'1414.1
2014-Apr-14 09:34N 51°28' E 000°47'2 1.9
2014-Apr-14 08:31N 51°26' E 000°44'0 0.0
2014-Apr-14 07:31N 51°26' E 000°44'0 0.0
2014-Apr-14 06:31N 51°26' E 000°44'0 0.0
2014-Apr-14 05:31N 51°26' E 000°44'0 0.0
2014-Apr-13 22:31N 51°26' E 000°44'0 0.0
2014-Apr-13 21:31N 51°26' E 000°44'0 0.0
2014-Apr-13 20:31N 51°26' E 000°44'0 0.0
2014-Apr-13 19:31N 51°26' E 000°44'0 0.0
2014-Apr-13 18:31N 51°26' E 000°44'1 0.9
2014-Apr-13 17:33N 51°27' E 000°45'1110.9
2014-Apr-13 16:32N 51°30' E 001°02'1111.1
2014-Apr-13 15:33N 51°29' E 001°19'9 8.9
2014-Apr-13 14:34N 51°27' E 001°33'7 7.1
2014-Apr-13 13:33N 51°31' E 001°42'6 5.6
2014-Apr-13 12:33N 51°35' E 001°49'5 5.0
2014-Apr-13 11:33N 51°38' E 001°56'6 5.7
2014-Apr-13 10:33N 51°41' E 002°03'9 8.5
2014-Apr-13 09:30N 51°41' E 002°18'13314.9
2014-Apr-13 00:33N 53°25' E 004°35'1514.6
2014-Apr-12 23:33N 53°32' E 004°56'1515.0
2014-Apr-12 22:33N 53°38' E 005°20'1514.6
2014-Apr-12 21:33N 53°43' E 005°43'1514.1
2014-Apr-12 20:29N 53°48' E 006°07'1112.4
2014-Apr-12 19:33N 53°39' E 006°21'1111.5
2014-Apr-12 18:33N 53°35' E 006°38'1312.8
2014-Apr-12 17:33N 53°26' E 006°55'9 9.1
2014-Apr-12 16:33N 53°20' E 007°06'3 3.3
2014-Apr-12 15:33N 53°20' E 007°11'0 0.5
2014-Apr-12 14:33N 53°21' E 007°12'0 0.0
2014-Apr-12 13:33N 53°21' E 007°12'0 0.0
2014-Apr-12 12:30N 53°21' E 007°12'0 0.0
2014-Apr-12 11:33N 53°21' E 007°12'0 0.0
2014-Apr-12 10:33N 53°21' E 007°12'0 0.0
2014-Apr-12 09:30N 53°21' E 007°12'0 0.0
2014-Apr-12 08:33N 53°21' E 007°12'0 0.0
2014-Apr-12 07:33N 53°21' E 007°12'0 0.0
2014-Apr-12 06:33N 53°21' E 007°12'0 0.0
2014-Apr-12 05:33N 53°21' E 007°12'0 0.0
2014-Apr-12 04:33N 53°21' E 007°12'0 0.0
2014-Apr-12 03:33N 53°21' E 007°12'0 0.0
2014-Apr-12 02:33N 53°21' E 007°12'0 0.0
2014-Apr-12 01:33N 53°21' E 007°12'0 0.0
2014-Apr-12 00:33N 53°21' E 007°12'0 0.0
2014-Apr-11 23:33N 53°21' E 007°12'0 0.0
2014-Apr-11 22:33N 53°21' E 007°12'0 0.0
2014-Apr-11 21:33N 53°21' E 007°12'0 0.0
2014-Apr-11 20:33N 53°21' E 007°12'0 0.0
2014-Apr-11 19:33N 53°21' E 007°12'0 0.0
2014-Apr-11 18:33N 53°21' E 007°12'0 0.0
2014-Apr-11 17:33N 53°21' E 007°12'0 0.0
2014-Apr-11 16:33N 53°21' E 007°12'0 0.0
2014-Apr-11 15:33N 53°21' E 007°12'0 0.0
2014-Apr-11 14:33N 53°21' E 007°12'0 0.0
2014-Apr-11 13:33N 53°21' E 007°12'0 0.0
2014-Apr-11 12:33N 53°21' E 007°12'0 0.0
2014-Apr-11 11:33N 53°21' E 007°12'0 0.5
2014-Apr-11 10:33N 53°20' E 007°11'7 7.1
2014-Apr-11 09:33N 53°21' E 006°59'1414.4
2014-Apr-11 08:33N 53°32' E 006°44'1514.6
2014-Apr-11 07:32N 53°37' E 006°21'1212.1
2014-Apr-11 06:33N 53°38' E 006°01'1616.3
2014-Apr-11 05:33N 53°35' E 005°34'1716.6
2014-Apr-11 04:33N 53°31' E 005°07'1716.8
2014-Apr-11 03:33N 53°22' E 004°43'1717.0
2014-Apr-11 02:33N 53°07' E 004°30'1717.0
2014-Apr-11 01:33N 52°53' E 004°15'1716.7
2014-Apr-11 00:33N 52°40' E 003°57'1716.6
2014-Apr-10 23:33N 52°28' E 003°39'1716.6
2014-Apr-10 22:33N 52°16' E 003°19'1616.3
2014-Apr-10 21:33N 52°03' E 003°03'1514.9
2014-Apr-10 20:33N 51°57' E 002°41'1515.0
2014-Apr-10 19:33N 51°49' E 002°21'1414.0
2014-Apr-10 18:33N 51°40' E 002°03'1414.2
2014-Apr-10 17:33N 51°33' E 001°44'1312.7
2014-Apr-10 16:33N 51°28' E 001°25'1514.8
2014-Apr-10 15:33N 51°29' E 001°02'1111.2
2014-Apr-10 14:33N 51°26' E 000°44'0 0.0
2014-Apr-10 13:33N 51°26' E 000°44'0 0.0
2014-Apr-10 12:33N 51°26' E 000°44'0 0.0
2014-Apr-10 11:33N 51°26' E 000°44'0 0.0
2014-Apr-10 10:33N 51°26' E 000°44'0 0.0
2014-Apr-10 09:33N 51°26' E 000°44'0 0.0
2014-Apr-10 08:33N 51°26' E 000°44'0 0.0
2014-Apr-10 07:33N 51°26' E 000°44'0 0.0
2014-Apr-10 06:33N 51°26' E 000°44'0 0.0
2014-Apr-10 05:31N 51°26' E 000°44'0 0.0
2014-Apr-10 04:33N 51°26' E 000°44'3 3.3
2014-Apr-10 03:33N 51°28' E 000°49'1313.0
2014-Apr-10 02:33N 51°29' E 001°10'1313.0
2014-Apr-10 01:33N 51°26' E 001°30'1110.9
2014-Apr-10 00:34N 51°33' E 001°44'1515.4
2014-Apr-09 23:33N 51°42' E 002°04'1514.9
2014-Apr-09 22:33N 51°50' E 002°24'1514.8
2014-Apr-09 21:33N 52°00' E 002°42'1514.9
2014-Apr-09 20:33N 52°10' E 002°60'1515.5
2014-Apr-09 19:33N 52°23' E 003°14'2016.3
2014-Apr-09 18:18N 52°40' E 003°33'1516.6
2014-Apr-09 17:26N 52°52' E 003°47'1416.5
2014-Apr-09 16:33N 53°02' E 004°05'1715.7
2014-Apr-09 15:28N 53°13' E 004°26'1415.6
2014-Apr-09 14:34N 53°26' E 004°35'1413.7
2014-Apr-09 13:33N 53°32' E 004°56'1413.7
2014-Apr-09 12:34N 53°36' E 005°18'1414.4
2014-Apr-09 11:33N 53°41' E 005°41'1313.1
2014-Apr-09 10:33N 53°41' E 006°03'1111.0
2014-Apr-09 09:32N 53°39' E 006°22'1111.7
2014-Apr-09 08:33N 53°34' E 006°39'1615.9
2014-Apr-09 07:34N 53°23' E 006°58'8 8.5
2014-Apr-09 06:34N 53°20' E 007°11'0 0.5
2014-Apr-09 05:30N 53°21' E 007°12'0 0.0
2014-Apr-09 04:33N 53°21' E 007°12'0 0.0
2014-Apr-09 03:33N 53°21' E 007°12'0 0.0
2014-Apr-09 02:33N 53°21' E 007°12'0 0.0
2014-Apr-09 01:33N 53°21' E 007°12'0 0.0
2014-Apr-09 00:33N 53°21' E 007°12'0 0.0
2014-Apr-08 23:33N 53°21' E 007°12'0 0.0
2014-Apr-08 22:33N 53°21' E 007°12'0 0.0
2014-Apr-08 21:33N 53°21' E 007°12'0 0.0
2014-Apr-08 20:33N 53°21' E 007°12'0 0.0
2014-Apr-08 19:33N 53°21' E 007°12'0 0.0
2014-Apr-08 18:33N 53°21' E 007°12'0 0.0
2014-Apr-08 17:33N 53°21' E 007°12'0 0.0
2014-Apr-08 16:33N 53°21' E 007°12'0 0.0
2014-Apr-08 15:33N 53°21' E 007°12'0 0.0
2014-Apr-08 14:33N 53°21' E 007°12'0 0.0
2014-Apr-08 13:33N 53°21' E 007°12'0 0.0
2014-Apr-08 12:33N 53°21' E 007°12'0 0.0
2014-Apr-08 11:33N 53°21' E 007°12'0 0.0
2014-Apr-08 10:33N 53°21' E 007°12'0 0.0
2014-Apr-08 09:33N 53°21' E 007°12'0 0.0
2014-Apr-08 08:33N 53°21' E 007°12'0 0.5
2014-Apr-08 07:33N 53°20' E 007°11'4 3.9
2014-Apr-08 06:33N 53°20' E 007°05'1110.9
2014-Apr-08 05:34N 53°27' E 006°52'1615.4
2014-Apr-08 04:33N 53°37' E 006°31'1111.5
2014-Apr-08 03:33N 53°38' E 006°12'1515.0
2014-Apr-08 02:33N 53°36' E 005°47'1616.4
2014-Apr-08 01:33N 53°32' E 005°20'1716.9
2014-Apr-08 00:33N 53°26' E 004°54'1716.1
2014-Apr-07 23:29N 53°14' E 004°33'2317.1
2014-Apr-07 22:09N 52°54' E 004°15'1016.9
2014-Apr-07 21:32N 52°45' E 004°05'1616.9
2014-Apr-07 20:33N 52°33' E 003°47'6616.4
2014-Apr-07 16:32N 51°51' E 002°24'1515.5
2014-Apr-07 15:33N 51°42' E 002°04'1515.0
2014-Apr-07 14:33N 51°34' E 001°44'1313.2
2014-Apr-07 13:33N 51°28' E 001°25'1413.9
2014-Apr-07 12:33N 51°30' E 001°03'1211.9
2014-Apr-07 11:33N 51°26' E 000°44'0 0.0
2014-Apr-07 10:33N 51°26' E 000°44'0 0.0
2014-Apr-07 09:33N 51°26' E 000°44'0 0.0
2014-Apr-07 08:33N 51°26' E 000°44'0 0.0
2014-Apr-07 07:30N 51°26' E 000°44'0 0.0
2014-Apr-07 06:33N 51°26' E 000°44'0 0.0
2014-Apr-07 05:33N 51°26' E 000°44'0 0.0
2014-Apr-07 04:33N 51°26' E 000°44'0 0.0
2014-Apr-07 03:33N 51°26' E 000°44'0 0.0
2014-Apr-07 02:33N 51°26' E 000°44'0 0.0
2014-Apr-07 01:33N 51°26' E 000°44'0 0.0
2014-Apr-07 00:33N 51°26' E 000°44'0 0.0
2014-Apr-06 23:33N 51°26' E 000°44'0 0.0
2014-Apr-06 22:33N 51°26' E 000°44'0 0.0
2014-Apr-06 21:33N 51°26' E 000°44'0 0.0
2014-Apr-06 20:33N 51°26' E 000°44'1 0.9
2014-Apr-06 19:33N 51°27' E 000°45'1010.1
2014-Apr-06 18:33N 51°30' E 001°00'1413.6
2014-Apr-06 17:33N 51°29' E 001°22'8 8.2
2014-Apr-06 16:34N 51°29' E 001°35'1514.9
2014-Apr-06 15:33N 51°37' E 001°55'9215.1
2014-Apr-06 09:27N 52°44' E 003°39'1213.4
2014-Apr-06 08:33N 52°53' E 003°51'3913.0
2014-Apr-06 05:33N 53°23' E 004°33'1413.9
2014-Apr-06 04:33N 53°32' E 004°51'  

Dump ship's entire track history

sailing weather and tide predictions

African Highway — 3EOD8 — position and weather